sensor_id;sensor_type;location;lat;lon;timestamp;pressure;altitude;pressure_sealevel;temperature;humidity
49835;BME280;35729;52.090;13.162;2023-01-26T00:01:58;101886.25;;;-0.54;99.33
49835;BME280;35729;52.090;13.162;2023-01-26T00:04:26;101881.09;;;-0.54;99.21
49835;BME280;35729;52.090;13.162;2023-01-26T00:06:57;101879.34;;;-0.55;99.07
49835;BME280;35729;52.090;13.162;2023-01-26T00:09:26;101879.28;;;-0.56;99.12
49835;BME280;35729;52.090;13.162;2023-01-26T00:11:54;101876.69;;;-0.56;99.43
49835;BME280;35729;52.090;13.162;2023-01-26T00:14:23;101866.31;;;-0.58;99.55
49835;BME280;35729;52.090;13.162;2023-01-26T00:16:51;101872.41;;;-0.56;99.74
49835;BME280;35729;52.090;13.162;2023-01-26T00:19:20;101869.84;;;-0.56;99.10
49835;BME280;35729;52.090;13.162;2023-01-26T00:21:48;101862.09;;;-0.56;99.42
49835;BME280;35729;52.090;13.162;2023-01-26T00:24:26;101855.25;;;-0.55;99.50
49835;BME280;35729;52.090;13.162;2023-01-26T00:26:54;101858.72;;;-0.55;99.22
49835;BME280;35729;52.090;13.162;2023-01-26T00:29:23;101858.72;;;-0.55;99.23
49835;BME280;35729;52.090;13.162;2023-01-26T00:31:51;101854.38;;;-0.56;99.24
49835;BME280;35729;52.090;13.162;2023-01-26T00:34:20;101857.78;;;-0.57;98.66
49835;BME280;35729;52.090;13.162;2023-01-26T00:36:49;101849.09;;;-0.59;98.39
49835;BME280;35729;52.090;13.162;2023-01-26T00:39:17;101842.97;;;-0.61;98.83
49835;BME280;35729;52.090;13.162;2023-01-26T00:41:48;101842.97;;;-0.61;98.54
49835;BME280;35729;52.090;13.162;2023-01-26T00:44:29;101839.47;;;-0.63;98.96
49835;BME280;35729;52.090;13.162;2023-01-26T00:46:58;101836.91;;;-0.63;98.94
49835;BME280;35729;52.090;13.162;2023-01-26T00:49:26;101841.25;;;-0.62;99.62
49835;BME280;35729;52.090;13.162;2023-01-26T00:51:55;101840.41;;;-0.61;99.53
49835;BME280;35729;52.090;13.162;2023-01-26T00:54:23;101834.44;;;-0.60;99.28
49835;BME280;35729;52.090;13.162;2023-01-26T00:56:54;101836.22;;;-0.59;99.51
49835;BME280;35729;52.090;13.162;2023-01-26T00:59:23;101844.00;;;-0.57;99.52
49835;BME280;35729;52.090;13.162;2023-01-26T01:01:52;101836.22;;;-0.59;99.04
49835;BME280;35729;52.090;13.162;2023-01-26T01:04:20;101831.06;;;-0.59;99.10
49835;BME280;35729;52.090;13.162;2023-01-26T01:06:49;101836.22;;;-0.59;99.09
49835;BME280;35729;52.090;13.162;2023-01-26T01:09:17;101829.34;;;-0.58;99.36
49835;BME280;35729;52.090;13.162;2023-01-26T01:11:46;101834.44;;;-0.60;99.38
49835;BME280;35729;52.090;13.162;2023-01-26T01:14:17;101828.41;;;-0.60;98.72
49835;BME280;35729;52.090;13.162;2023-01-26T01:16:46;101824.88;;;-0.62;98.41
49835;BME280;35729;52.090;13.162;2023-01-26T01:19:15;101818.84;;;-0.63;98.67
49835;BME280;35729;52.090;13.162;2023-01-26T01:21:44;101819.53;;;-0.67;98.50
49835;BME280;35729;52.090;13.162;2023-01-26T01:24:13;101818.72;;;-0.66;98.65
49835;BME280;35729;52.090;13.162;2023-01-26T01:26:41;101810.94;;;-0.68;98.83
49835;BME280;35729;52.090;13.162;2023-01-26T01:29:11;101816.94;;;-0.67;98.86
49835;BME280;35729;52.090;13.162;2023-01-26T01:31:43;101811.78;;;-0.67;98.49
49835;BME280;35729;52.090;13.162;2023-01-26T01:34:11;101815.13;;;-0.70;98.15
49835;BME280;35729;52.090;13.162;2023-01-26T01:36:40;101807.38;;;-0.70;98.67
49835;BME280;35729;52.090;13.162;2023-01-26T01:39:08;101799.66;;;-0.70;98.84
49835;BME280;35729;52.090;13.162;2023-01-26T01:41:37;101797.97;;;-0.69;98.94
49835;BME280;35729;52.090;13.162;2023-01-26T01:44:14;101797.97;;;-0.69;98.98
49835;BME280;35729;52.090;13.162;2023-01-26T01:46:49;101786.72;;;-0.71;99.21
49835;BME280;35729;52.090;13.162;2023-01-26T01:49:24;101796.31;;;-0.67;99.35
49835;BME280;35729;52.090;13.162;2023-01-26T01:51:56;101791.16;;;-0.67;98.68
49835;BME280;35729;52.090;13.162;2023-01-26T01:54:29;101780.88;;;-0.67;98.22
49835;BME280;35729;52.090;13.162;2023-01-26T01:57:02;101783.38;;;-0.69;98.62
49835;BME280;35729;52.090;13.162;2023-01-26T01:59:41;101777.38;;;-0.69;98.81
49835;BME280;35729;52.090;13.162;2023-01-26T02:02:14;101771.44;;;-0.67;98.99
49835;BME280;35729;52.090;13.162;2023-01-26T02:04:43;101766.31;;;-0.67;99.22
49835;BME280;35729;52.090;13.162;2023-01-26T02:07:12;101762.91;;;-0.66;99.04
49835;BME280;35729;52.090;13.162;2023-01-26T02:09:42;101763.72;;;-0.67;98.34
49835;BME280;35729;52.090;13.162;2023-01-26T02:12:31;101752.34;;;-0.72;98.75
49835;BME280;35729;52.090;13.162;2023-01-26T02:15:02;101739.25;;;-0.76;98.33
49835;BME280;35729;52.090;13.162;2023-01-26T02:17:33;101749.72;;;-0.73;98.78
49835;BME280;35729;52.090;13.162;2023-01-26T02:20:06;101752.28;;;-0.73;98.35
49835;BME280;35729;52.090;13.162;2023-01-26T02:22:51;101748.72;;;-0.77;98.63
49835;BME280;35729;52.090;13.162;2023-01-26T02:25:29;101744.38;;;-0.78;98.78
49835;BME280;35729;52.090;13.162;2023-01-26T02:28:03;101742.59;;;-0.79;98.81
49835;BME280;35729;52.090;13.162;2023-01-26T02:30:32;101742.53;;;-0.80;98.92
49835;BME280;35729;52.090;13.162;2023-01-26T02:33:01;101743.25;;;-0.85;99.19
49835;BME280;35729;52.090;13.162;2023-01-26T02:35:29;101743.34;;;-0.82;99.30
49835;BME280;35729;52.090;13.162;2023-01-26T02:37:58;101739.00;;;-0.83;99.44
49835;BME280;35729;52.090;13.162;2023-01-26T02:40:33;101741.59;;;-0.83;99.35
49835;BME280;35729;52.090;13.162;2023-01-26T02:43:08;101735.56;;;-0.83;99.40
49835;BME280;35729;52.090;13.162;2023-01-26T02:45:34;101735.69;;;-0.80;99.79
49835;BME280;35729;52.090;13.162;2023-01-26T02:48:03;101728.84;;;-0.79;99.88
49835;BME280;35729;52.090;13.162;2023-01-26T02:50:33;101728.75;;;-0.81;99.87
49835;BME280;35729;52.090;13.162;2023-01-26T02:52:59;101734.97;;;-0.76;99.81
49835;BME280;35729;52.090;13.162;2023-01-26T02:55:28;101736.69;;;-0.76;99.70
49835;BME280;35729;52.090;13.162;2023-01-26T02:57:55;101730.72;;;-0.75;99.59
49835;BME280;35729;52.090;13.162;2023-01-26T03:00:29;101727.34;;;-0.74;100.00
49835;BME280;35729;52.090;13.162;2023-01-26T03:03:00;101726.56;;;-0.72;99.80
49835;BME280;35729;52.090;13.162;2023-01-26T03:05:29;101730.06;;;-0.70;99.86
49835;BME280;35729;52.090;13.162;2023-01-26T03:07:57;101728.44;;;-0.68;100.00
49835;BME280;35729;52.090;13.162;2023-01-26T03:10:26;101725.13;;;-0.65;100.00
49835;BME280;35729;52.090;13.162;2023-01-26T03:12:55;101719.97;;;-0.65;100.00
49835;BME280;35729;52.090;13.162;2023-01-26T03:15:27;101720.72;;;-0.68;99.92
49835;BME280;35729;52.090;13.162;2023-01-26T03:18:09;101724.41;;;-0.61;100.00
49835;BME280;35729;52.090;13.162;2023-01-26T03:20:50;101718.44;;;-0.60;99.87
49835;BME280;35729;52.090;13.162;2023-01-26T03:23:31;101714.25;;;-0.58;100.00
49835;BME280;35729;52.090;13.162;2023-01-26T03:26:12;101708.28;;;-0.57;99.92
49835;BME280;35729;52.090;13.162;2023-01-26T03:28:53;101710.84;;;-0.57;99.79
49835;BME280;35729;52.090;13.162;2023-01-26T03:31:24;101710.00;;;-0.56;99.89
49835;BME280;35729;52.090;13.162;2023-01-26T03:33:53;101714.28;;;-0.56;99.76
49835;BME280;35729;52.090;13.162;2023-01-26T03:36:21;101707.38;;;-0.57;99.82
49835;BME280;35729;52.090;13.162;2023-01-26T03:38:50;101703.13;;;-0.57;99.88
49835;BME280;35729;52.090;13.162;2023-01-26T03:41:18;101710.91;;;-0.55;99.96
49835;BME280;35729;52.090;13.162;2023-01-26T03:43:59;101706.56;;;-0.56;99.91
49835;BME280;35729;52.090;13.162;2023-01-26T03:46:43;101704.94;;;-0.54;100.00
49835;BME280;35729;52.090;13.162;2023-01-26T03:49:24;101698.88;;;-0.55;99.78
49835;BME280;35729;52.090;13.162;2023-01-26T03:52:04;101702.41;;;-0.53;99.68
49835;BME280;35729;52.090;13.162;2023-01-26T03:54:45;101696.34;;;-0.53;99.73
49835;BME280;35729;52.090;13.162;2023-01-26T03:57:27;101696.44;;;-0.52;99.91
49835;BME280;35729;52.090;13.162;2023-01-26T03:59:56;101693.84;;;-0.52;99.73
49835;BME280;35729;52.090;13.162;2023-01-26T04:02:27;101698.16;;;-0.51;99.89
49835;BME280;35729;52.090;13.162;2023-01-26T04:05:08;101692.16;;;-0.51;99.95
49835;BME280;35729;52.090;13.162;2023-01-26T04:07:49;101693.00;;;-0.51;99.84
49835;BME280;35729;52.090;13.162;2023-01-26T04:10:37;101701.66;;;-0.50;99.68
49835;BME280;35729;52.090;13.162;2023-01-26T04:13:05;101693.91;;;-0.50;99.88
49835;BME280;35729;52.090;13.162;2023-01-26T04:15:46;101701.66;;;-0.50;99.75
49835;BME280;35729;52.090;13.162;2023-01-26T04:18:30;101699.88;;;-0.51;99.62
49835;BME280;35729;52.090;13.162;2023-01-26T04:21:11;101697.25;;;-0.53;99.80
49835;BME280;35729;52.090;13.162;2023-01-26T04:23:52;101697.25;;;-0.53;99.65
49835;BME280;35729;52.090;13.162;2023-01-26T04:26:22;101687.47;;;-0.61;98.81
49835;BME280;35729;52.090;13.162;2023-01-26T04:28:51;101688.31;;;-0.61;97.84
49835;BME280;35729;52.090;13.162;2023-01-26T04:31:19;101686.44;;;-0.65;98.58
49835;BME280;35729;52.090;13.162;2023-01-26T04:33:50;101688.06;;;-0.67;98.92
49835;BME280;35729;52.090;13.162;2023-01-26T04:36:19;101684.59;;;-0.69;99.29
49835;BME280;35729;52.090;13.162;2023-01-26T04:38:47;101684.59;;;-0.69;99.49
49835;BME280;35729;52.090;13.162;2023-01-26T04:41:16;101683.69;;;-0.70;98.85
49835;BME280;35729;52.090;13.162;2023-01-26T04:43:45;101685.28;;;-0.73;98.69
49835;BME280;35729;52.090;13.162;2023-01-26T04:46:13;101676.47;;;-0.78;98.84
49835;BME280;35729;52.090;13.162;2023-01-26T04:48:42;101674.72;;;-0.79;99.20
49835;BME280;35729;52.090;13.162;2023-01-26T04:51:15;101676.41;;;-0.80;99.22
49835;BME280;35729;52.090;13.162;2023-01-26T04:53:44;101677.31;;;-0.79;99.43
49835;BME280;35729;52.090;13.162;2023-01-26T04:56:18;101672.97;;;-0.80;99.53
49835;BME280;35729;52.090;13.162;2023-01-26T04:58:56;101673.03;;;-0.79;99.58
49835;BME280;35729;52.090;13.162;2023-01-26T05:01:26;101667.91;;;-0.77;99.96
49835;BME280;35729;52.090;13.162;2023-01-26T05:03:54;101670.56;;;-0.76;99.72
49835;BME280;35729;52.090;13.162;2023-01-26T05:06:26;101674.91;;;-0.75;99.80
49835;BME280;35729;52.090;13.162;2023-01-26T05:08:54;101673.28;;;-0.73;99.66
49835;BME280;35729;52.090;13.162;2023-01-26T05:11:23;101668.06;;;-0.74;99.84
49835;BME280;35729;52.090;13.162;2023-01-26T05:13:51;101672.41;;;-0.73;99.99
49835;BME280;35729;52.090;13.162;2023-01-26T05:16:20;101666.34;;;-0.74;99.61
49835;BME280;35729;52.090;13.162;2023-01-26T05:18:48;101666.34;;;-0.74;99.78
49835;BME280;35729;52.090;13.162;2023-01-26T05:21:17;101668.97;;;-0.72;100.00
49835;BME280;35729;52.090;13.162;2023-01-26T05:23:51;101665.59;;;-0.71;99.88
49835;BME280;35729;52.090;13.162;2023-01-26T05:26:20;101663.81;;;-0.72;99.96
49835;BME280;35729;52.090;13.162;2023-01-26T05:28:48;101657.81;;;-0.73;99.95
49835;BME280;35729;52.090;13.162;2023-01-26T05:31:17;101655.19;;;-0.74;99.56
49835;BME280;35729;52.090;13.162;2023-01-26T05:33:45;101656.75;;;-0.78;99.57
49835;BME280;35729;52.090;13.162;2023-01-26T05:36:14;101668.72;;;-0.78;99.74
49835;BME280;35729;52.090;13.162;2023-01-26T05:38:42;101666.09;;;-0.80;100.00
49835;BME280;35729;52.090;13.162;2023-01-26T05:41:14;101665.25;;;-0.80;99.98
49835;BME280;35729;52.090;13.162;2023-01-26T05:43:42;101661.72;;;-0.83;99.70
49835;BME280;35729;52.090;13.162;2023-01-26T05:46:11;101649.53;;;-0.87;99.54
49835;BME280;35729;52.090;13.162;2023-01-26T05:48:39;101650.28;;;-0.89;99.80
49835;BME280;35729;52.090;13.162;2023-01-26T05:51:08;101654.44;;;-0.93;99.73
49835;BME280;35729;52.090;13.162;2023-01-26T05:53:36;101660.34;;;-0.95;99.60
49835;BME280;35729;52.090;13.162;2023-01-26T05:56:05;101664.50;;;-0.99;99.92
49835;BME280;35729;52.090;13.162;2023-01-26T05:58:37;101658.47;;;-1.00;99.99
49835;BME280;35729;52.090;13.162;2023-01-26T06:01:05;101668.56;;;-1.04;99.96
49835;BME280;35729;52.090;13.162;2023-01-26T06:03:34;101665.94;;;-1.06;100.00
49835;BME280;35729;52.090;13.162;2023-01-26T06:06:03;101673.69;;;-1.06;100.00
49835;BME280;35729;52.090;13.162;2023-01-26T06:08:31;101677.94;;;-1.06;100.00
49835;BME280;35729;52.090;13.162;2023-01-26T06:11:00;101686.50;;;-1.07;100.00
49835;BME280;35729;52.090;13.162;2023-01-26T06:13:29;101675.28;;;-1.08;100.00
49835;BME280;35729;52.090;13.162;2023-01-26T06:16:02;101673.53;;;-1.09;100.00
49835;BME280;35729;52.090;13.162;2023-01-26T06:18:30;101672.66;;;-1.09;100.00
49835;BME280;35729;52.090;13.162;2023-01-26T06:20:59;101682.09;;;-1.10;100.00
49835;BME280;35729;52.090;13.162;2023-01-26T06:23:28;101681.22;;;-1.10;100.00
49835;BME280;35729;52.090;13.162;2023-01-26T06:25:58;101682.00;;;-1.11;100.00
49835;BME280;35729;52.090;13.162;2023-01-26T06:28:26;101684.59;;;-1.11;100.00
49835;BME280;35729;52.090;13.162;2023-01-26T06:31:01;101689.75;;;-1.11;100.00
49835;BME280;35729;52.090;13.162;2023-01-26T06:33:30;101694.97;;;-1.10;100.00
49835;BME280;35729;52.090;13.162;2023-01-26T06:36:00;101690.69;;;-1.09;100.00
49835;BME280;35729;52.090;13.162;2023-01-26T06:38:29;101684.59;;;-1.11;100.00
49835;BME280;35729;52.090;13.162;2023-01-26T06:40:59;101689.69;;;-1.13;100.00
49835;BME280;35729;52.090;13.162;2023-01-26T06:43:28;101681.69;;;-1.19;100.00
49835;BME280;35729;52.090;13.162;2023-01-26T06:45:57;101681.91;;;-1.15;100.00
49835;BME280;35729;52.090;13.162;2023-01-26T06:48:30;101679.19;;;-1.18;100.00
49835;BME280;35729;52.090;13.162;2023-01-26T06:51:04;101682.59;;;-1.19;100.00
49835;BME280;35729;52.090;13.162;2023-01-26T06:53:54;101681.69;;;-1.19;100.00
49835;BME280;35729;52.090;13.162;2023-01-26T06:56:23;101671.22;;;-1.24;100.00
49835;BME280;35729;52.090;13.162;2023-01-26T06:58:53;101668.78;;;-1.21;100.00
49835;BME280;35729;52.090;13.162;2023-01-26T07:01:24;101675.75;;;-1.18;100.00
49835;BME280;35729;52.090;13.162;2023-01-26T07:03:56;101667.97;;;-1.20;99.97
49835;BME280;35729;52.090;13.162;2023-01-26T07:06:24;101662.66;;;-1.23;100.00
49835;BME280;35729;52.090;13.162;2023-01-26T07:08:53;101669.56;;;-1.22;100.00
49835;BME280;35729;52.090;13.162;2023-01-26T07:11:21;101669.56;;;-1.22;100.00
49835;BME280;35729;52.090;13.162;2023-01-26T07:13:50;101685.19;;;-1.19;100.00
49835;BME280;35729;52.090;13.162;2023-01-26T07:16:19;101680.88;;;-1.18;100.00
49835;BME280;35729;52.090;13.162;2023-01-26T07:18:47;101680.94;;;-1.17;100.00
49835;BME280;35729;52.090;13.162;2023-01-26T07:21:18;101683.53;;;-1.17;100.00
49835;BME280;35729;52.090;13.162;2023-01-26T07:23:47;101684.34;;;-1.18;100.00
49835;BME280;35729;52.090;13.162;2023-01-26T07:26:18;101685.22;;;-1.17;100.00
49835;BME280;35729;52.090;13.162;2023-01-26T07:28:47;101684.34;;;-1.18;100.00
49835;BME280;35729;52.090;13.162;2023-01-26T07:31:15;101678.38;;;-1.17;100.00
49835;BME280;35729;52.090;13.162;2023-01-26T07:33:44;101669.78;;;-1.17;100.00
49835;BME280;35729;52.090;13.162;2023-01-26T07:36:12;101675.78;;;-1.17;100.00
49835;BME280;35729;52.090;13.162;2023-01-26T07:38:43;101674.13;;;-1.16;100.00
49835;BME280;35729;52.090;13.162;2023-01-26T07:41:12;101674.03;;;-1.18;100.00
49835;BME280;35729;52.090;13.162;2023-01-26T07:43:41;101676.56;;;-1.19;100.00
49835;BME280;35729;52.090;13.162;2023-01-26T07:46:10;101684.22;;;-1.21;99.73
49835;BME280;35729;52.090;13.162;2023-01-26T07:48:38;101686.78;;;-1.21;100.00
49835;BME280;35729;52.090;13.162;2023-01-26T07:51:07;101681.69;;;-1.19;100.00
49835;BME280;35729;52.090;13.162;2023-01-26T07:53:36;101670.38;;;-1.23;100.00
49835;BME280;35729;52.090;13.162;2023-01-26T07:56:11;101675.69;;;-1.20;100.00
49835;BME280;35729;52.090;13.162;2023-01-26T07:58:40;101679.94;;;-1.20;99.67
49835;BME280;35729;52.090;13.162;2023-01-26T08:01:11;101680.84;;;-1.20;100.00
49835;BME280;35729;52.090;13.162;2023-01-26T08:03:40;101688.63;;;-1.18;99.44
49835;BME280;35729;52.090;13.162;2023-01-26T08:06:10;101691.25;;;-1.17;99.97
49835;BME280;35729;52.090;13.162;2023-01-26T08:08:40;101691.25;;;-1.17;100.00
49835;BME280;35729;52.090;13.162;2023-01-26T08:11:11;101696.53;;;-1.13;99.99
49835;BME280;35729;52.090;13.162;2023-01-26T08:13:40;101700.03;;;-1.11;99.49
49835;BME280;35729;52.090;13.162;2023-01-26T08:16:10;101703.47;;;-1.12;98.32
49835;BME280;35729;52.090;13.162;2023-01-26T08:18:39;101699.94;;;-1.15;98.10
49835;BME280;35729;52.090;13.162;2023-01-26T08:21:08;101694.63;;;-1.18;97.82
49835;BME280;35729;52.090;13.162;2023-01-26T08:23:37;101695.38;;;-1.20;97.19
49835;BME280;35729;52.090;13.162;2023-01-26T08:26:07;101685.59;;;-1.29;97.53
49835;BME280;35729;52.090;13.162;2023-01-26T08:28:47;101693.50;;;-1.24;98.05
49835;BME280;35729;52.090;13.162;2023-01-26T08:31:17;101690.81;;;-1.27;97.82
49835;BME280;35729;52.090;13.162;2023-01-26T08:33:48;101694.25;;;-1.27;97.61
49835;BME280;35729;52.090;13.162;2023-01-26T08:36:19;101684.66;;;-1.31;97.93
49835;BME280;35729;52.090;13.162;2023-01-26T08:38:48;101687.09;;;-1.34;98.17
49835;BME280;35729;52.090;13.162;2023-01-26T08:41:17;101696.03;;;-1.26;99.01
49835;BME280;35729;52.090;13.162;2023-01-26T08:43:49;101689.91;;;-1.28;98.78
49835;BME280;35729;52.090;13.162;2023-01-26T08:46:18;101688.41;;;-1.23;98.83
49835;BME280;35729;52.090;13.162;2023-01-26T08:48:46;101691.94;;;-1.21;98.91
49835;BME280;35729;52.090;13.162;2023-01-26T08:51:15;101694.53;;;-1.21;99.16
49835;BME280;35729;52.090;13.162;2023-01-26T08:53:44;101691.84;;;-1.24;98.62
49835;BME280;35729;52.090;13.162;2023-01-26T08:56:12;101699.66;;;-1.21;99.16
49835;BME280;35729;52.090;13.162;2023-01-26T08:58:41;101695.38;;;-1.20;99.44
49835;BME280;35729;52.090;13.162;2023-01-26T09:01:13;101697.84;;;-1.23;98.38
49835;BME280;35729;52.090;13.162;2023-01-26T09:03:42;101688.31;;;-1.26;99.05
49835;BME280;35729;52.090;13.162;2023-01-26T09:06:12;101696.22;;;-1.21;99.46
49835;BME280;35729;52.090;13.162;2023-01-26T09:08:41;101691.06;;;-1.21;99.48
49835;BME280;35729;52.090;13.162;2023-01-26T09:11:10;101698.81;;;-1.21;98.71
49835;BME280;35729;52.090;13.162;2023-01-26T09:13:39;101689.13;;;-1.27;99.09
49835;BME280;35729;52.090;13.162;2023-01-26T09:16:16;101704.72;;;-1.24;98.56
49835;BME280;35729;52.090;13.162;2023-01-26T09:18:48;101695.66;;;-1.35;98.25
49835;BME280;35729;52.090;13.162;2023-01-26T09:21:16;101707.88;;;-1.29;98.93
49835;BME280;35729;52.090;13.162;2023-01-26T09:23:45;101710.47;;;-1.29;99.22
49835;BME280;35729;52.090;13.162;2023-01-26T09:26:14;101698.41;;;-1.31;99.21
49835;BME280;35729;52.090;13.162;2023-01-26T09:28:42;101705.31;;;-1.29;99.27
49835;BME280;35729;52.090;13.162;2023-01-26T09:31:14;101706.19;;;-1.29;99.24
49835;BME280;35729;52.090;13.162;2023-01-26T09:33:42;101711.41;;;-1.27;99.72
49835;BME280;35729;52.090;13.162;2023-01-26T09:36:11;101714.91;;;-1.25;99.61
49835;BME280;35729;52.090;13.162;2023-01-26T09:38:39;101712.44;;;-1.24;99.97
49835;BME280;35729;52.090;13.162;2023-01-26T09:41:19;101711.59;;;-1.23;99.80
49835;BME280;35729;52.090;13.162;2023-01-26T09:43:54;101709.00;;;-1.23;99.51
49835;BME280;35729;52.090;13.162;2023-01-26T09:46:31;101709.84;;;-1.24;99.77
49835;BME280;35729;52.090;13.162;2023-01-26T09:49:06;101708.97;;;-1.24;98.99
49835;BME280;35729;52.090;13.162;2023-01-26T09:51:39;101702.13;;;-1.24;99.23
49835;BME280;35729;52.090;13.162;2023-01-26T09:54:17;101703.06;;;-1.22;99.45
49835;BME280;35729;52.090;13.162;2023-01-26T09:56:48;101705.63;;;-1.22;99.37
49835;BME280;35729;52.090;13.162;2023-01-26T09:59:21;101709.09;;;-1.21;98.70
49835;BME280;35729;52.090;13.162;2023-01-26T10:02:01;101706.31;;;-1.26;98.53
49835;BME280;35729;52.090;13.162;2023-01-26T10:04:35;101707.19;;;-1.25;98.25
49835;BME280;35729;52.090;13.162;2023-01-26T10:07:09;101709.72;;;-1.27;98.01
49835;BME280;35729;52.090;13.162;2023-01-26T10:09:40;101706.31;;;-1.26;98.69
49835;BME280;35729;52.090;13.162;2023-01-26T10:12:16;101696.56;;;-1.33;98.66
49835;BME280;35729;52.090;13.162;2023-01-26T10:14:49;101700.38;;;-1.25;98.15
49835;BME280;35729;52.090;13.162;2023-01-26T10:17:25;101698.47;;;-1.29;98.12
49835;BME280;35729;52.090;13.162;2023-01-26T10:20:00;101686.34;;;-1.32;98.52
49835;BME280;35729;52.090;13.162;2023-01-26T10:22:35;101685.47;;;-1.32;98.33
49835;BME280;35729;52.090;13.162;2023-01-26T10:25:14;101694.19;;;-1.28;99.02
49835;BME280;35729;52.090;13.162;2023-01-26T10:27:44;101689.97;;;-1.26;99.08
49835;BME280;35729;52.090;13.162;2023-01-26T10:30:14;101680.44;;;-1.29;98.89
49835;BME280;35729;52.090;13.162;2023-01-26T10:32:49;101678.69;;;-1.30;98.74
49835;BME280;35729;52.090;13.162;2023-01-26T10:35:24;101685.59;;;-1.29;98.03
49835;BME280;35729;52.090;13.162;2023-01-26T10:37:53;101672.59;;;-1.32;98.39
49835;BME280;35729;52.090;13.162;2023-01-26T10:40:22;101669.16;;;-1.33;99.06
49835;BME280;35729;52.090;13.162;2023-01-26T10:42:56;101666.44;;;-1.36;99.29
49835;BME280;35729;52.090;13.162;2023-01-26T10:45:28;101668.25;;;-1.33;97.67
49835;BME280;35729;52.090;13.162;2023-01-26T10:48:08;101655.56;;;-1.50;96.69
49835;BME280;35729;52.090;13.162;2023-01-26T10:50:41;101665.31;;;-1.42;97.43
49835;BME280;35729;52.090;13.162;2023-01-26T10:53:14;101660.84;;;-1.46;97.50
49835;BME280;35729;52.090;13.162;2023-01-26T10:55:57;101667.63;;;-1.49;97.79
49835;BME280;35729;52.090;13.162;2023-01-26T10:58:46;101663.44;;;-1.46;97.96
49835;BME280;35729;52.090;13.162;2023-01-26T11:01:16;101656.56;;;-1.46;98.13
49835;BME280;35729;52.090;13.162;2023-01-26T11:04:05;101652.16;;;-1.49;97.44
49835;BME280;35729;52.090;13.162;2023-01-26T11:06:36;101652.44;;;-1.42;98.15
49835;BME280;35729;52.090;13.162;2023-01-26T11:09:18;101651.75;;;-1.38;98.30
49835;BME280;35729;52.090;13.162;2023-01-26T11:12:00;101644.06;;;-1.37;98.39
49835;BME280;35729;52.090;13.162;2023-01-26T11:14:31;101653.50;;;-1.37;97.39
49835;BME280;35729;52.090;13.162;2023-01-26T11:17:08;101652.69;;;-1.36;97.16
49835;BME280;35729;52.090;13.162;2023-01-26T11:19:59;101645.78;;;-1.37;97.21
49835;BME280;35729;52.090;13.162;2023-01-26T11:22:37;101645.78;;;-1.37;97.95
49835;BME280;35729;52.090;13.162;2023-01-26T11:25:17;101641.38;;;-1.40;98.12
49835;BME280;35729;52.090;13.162;2023-01-26T11:28:00;101642.56;;;-1.32;98.03
49835;BME280;35729;52.090;13.162;2023-01-26T11:30:41;101634.94;;;-1.30;97.56
49835;BME280;35729;52.090;13.162;2023-01-26T11:33:17;101630.66;;;-1.29;96.88
49835;BME280;35729;52.090;13.162;2023-01-26T11:35:58;101632.34;;;-1.30;97.12
49835;BME280;35729;52.090;13.162;2023-01-26T11:38:35;101626.31;;;-1.31;97.04
49835;BME280;35729;52.090;13.162;2023-01-26T11:41:19;101624.63;;;-1.30;96.18
49835;BME280;35729;52.090;13.162;2023-01-26T11:49:54;101610.16;;;-1.26;96.15
49835;BME280;35729;52.090;13.162;2023-01-26T11:52:34;101606.78;;;-1.25;96.96
49835;BME280;35729;52.090;13.162;2023-01-26T11:55:18;101594.50;;;-1.33;97.46
49835;BME280;35729;52.090;13.162;2023-01-26T11:58:05;101603.44;;;-1.23;97.61
49835;BME280;35729;52.090;13.162;2023-01-26T12:00:41;101599.25;;;-1.21;97.67
49835;BME280;35729;52.090;13.162;2023-01-26T12:03:18;101595.81;;;-1.21;96.84
49835;BME280;35729;52.090;13.162;2023-01-26T12:05:51;101590.56;;;-1.23;97.20
49835;BME280;35729;52.090;13.162;2023-01-26T12:08:26;101592.38;;;-1.20;98.00
49835;BME280;35729;52.090;13.162;2023-01-26T12:11:05;101590.00;;;-1.16;97.77
49835;BME280;35729;52.090;13.162;2023-01-26T12:14:14;101584.03;;;-1.15;95.51
49835;BME280;35729;52.090;13.162;2023-01-26T12:16:58;101586.47;;;-1.18;95.30
49835;BME280;35729;52.090;13.162;2023-01-26T12:19:37;101580.25;;;-1.23;95.10
49835;BME280;35729;52.090;13.162;2023-01-26T12:22:12;101570.63;;;-1.28;96.42
49835;BME280;35729;52.090;13.162;2023-01-26T12:24:50;101578.44;;;-1.25;96.32
49835;BME280;35729;52.090;13.162;2023-01-26T12:27:24;101575.88;;;-1.25;96.32
49835;BME280;35729;52.090;13.162;2023-01-26T12:30:00;101564.81;;;-1.23;96.40
49835;BME280;35729;52.090;13.162;2023-01-26T12:32:32;101562.31;;;-1.21;97.37
49835;BME280;35729;52.090;13.162;2023-01-26T12:35:00;101555.66;;;-1.16;97.95
49835;BME280;35729;52.090;13.162;2023-01-26T12:37:46;101560.22;;;-1.09;98.09
49835;BME280;35729;52.090;13.162;2023-01-26T12:40:29;101555.28;;;-1.03;97.66
49835;BME280;35729;52.090;13.162;2023-01-26T12:43:15;101563.22;;;-0.98;98.02
49835;BME280;35729;52.090;13.162;2023-01-26T12:45:50;101552.09;;;-0.97;96.82
49835;BME280;35729;52.090;13.162;2023-01-26T12:48:24;101556.63;;;-0.90;96.92
49835;BME280;35729;52.090;13.162;2023-01-26T12:51:00;101554.06;;;-0.90;95.08
49835;BME280;35729;52.090;13.162;2023-01-26T12:53:33;101562.69;;;-0.89;95.51
49835;BME280;35729;52.090;13.162;2023-01-26T12:56:11;101556.72;;;-0.88;96.45
49835;BME280;35729;52.090;13.162;2023-01-26T12:58:43;101549.00;;;-0.88;96.75
49835;BME280;35729;52.090;13.162;2023-01-26T13:01:15;101554.38;;;-0.82;96.93
49835;BME280;35729;52.090;13.162;2023-01-26T13:03:51;101553.72;;;-0.76;97.02
49835;BME280;35729;52.090;13.162;2023-01-26T13:06:22;101554.66;;;-0.74;96.52
49835;BME280;35729;52.090;13.162;2023-01-26T13:08:59;101550.44;;;-0.72;96.94
49835;BME280;35729;52.090;13.162;2023-01-26T13:11:48;101555.59;;;-0.72;94.47